Time;durP1;ratioP1;P1;durP2;ratioP2;P2;SDS_P1;SDS_P2;PMS_P1;PMS_P2;Temp;Humidity;BMP_temperature;BMP_pressure;BME280_temperature;BME280_humidity;BME280_pressure;Samples;Min_cycle;Max_cycle;Signal;HPM_P1;HPM_P2
2023/01/15 00:02:48;;;;;;;0.90;0.80;;;;;;;9.69;100.00;98569.66;10315608;28;20050;-72
2023/01/15 00:07:51;;;;;;;2.05;1.00;;;;;;;9.69;100.00;98582.94;10326739;28;20049;-71
2023/01/15 00:12:52;;;;;;;2.65;1.20;;;;;;;9.70;100.00;98568.66;10318101;28;20054;-72
2023/01/15 00:17:54;;;;;;;2.28;1.23;;;;;;;9.74;100.00;98575.31;10320699;28;20069;-72
2023/01/15 00:22:55;;;;;;;1.52;0.77;;;;;;;9.77;100.00;98553.72;10315769;28;20061;-73
2023/01/15 00:27:57;;;;;;;1.42;1.02;;;;;;;9.78;100.00;98552.75;10320771;28;20137;-72
2023/01/15 00:33:01;;;;;;;1.42;1.17;;;;;;;9.76;100.00;98546.75;10320717;28;20050;-72
2023/01/15 00:38:03;;;;;;;1.30;1.20;;;;;;;9.76;100.00;98544.09;10320163;28;20133;-72
2023/01/15 00:43:05;;;;;;;1.42;1.30;;;;;;;9.81;100.00;98543.63;10319709;28;20546;-70
2023/01/15 00:48:07;;;;;;;1.38;1.00;;;;;;;9.82;100.00;98543.47;10320583;28;20151;-71
2023/01/15 00:53:09;;;;;;;1.58;1.40;;;;;;;9.80;100.00;98540.13;10320204;28;20463;-71
2023/01/15 00:58:10;;;;;;;1.92;1.38;;;;;;;9.81;100.00;98551.59;10324138;28;20586;-70
2023/01/15 01:03:12;;;;;;;2.25;1.42;;;;;;;9.76;100.00;98544.09;10321969;28;20049;-70
2023/01/15 01:08:13;;;;;;;2.15;1.33;;;;;;;9.80;100.00;98558.72;10322570;28;20065;-71
2023/01/15 01:13:15;;;;;;;1.27;0.90;;;;;;;9.77;100.00;98553.72;10315154;28;20164;-70
2023/01/15 01:18:16;;;;;;;1.17;0.80;;;;;;;9.72;100.00;98550.72;10318206;28;20050;-71
2023/01/15 01:23:18;;;;;;;1.10;0.80;;;;;;;9.73;100.00;98552.41;10317866;28;20462;-71
2023/01/15 01:28:19;;;;;;;2.65;0.60;;;;;;;9.80;100.00;98579.16;10323276;28;20136;-70
2023/01/15 01:33:21;;;;;;;1.88;0.80;;;;;;;9.85;100.00;98577.69;10324247;28;20128;-70
2023/01/15 01:38:22;;;;;;;0.28;0.25;;;;;;;9.91;100.00;98566.41;10325465;28;20139;-70
2023/01/15 01:43:27;;;;;;;0.40;0.20;;;;;;;9.89;100.00;98576.38;10322405;28;20454;-69
2023/01/15 01:48:33;;;;;;;1.48;0.20;;;;;;;9.96;100.00;98584.53;10326687;28;20081;-70
2023/01/15 01:53:35;;;;;;;0.60;0.20;;;;;;;9.98;100.00;98592.34;10325345;28;20490;-72
2023/01/15 01:58:37;;;;;;;0.90;0.20;;;;;;;9.97;100.00;98602.16;10306115;28;20049;-72
2023/01/15 02:03:39;;;;;;;0.50;0.20;;;;;;;10.04;100.00;98605.84;10322000;28;20490;-72
2023/01/15 02:08:41;;;;;;;0.65;0.20;;;;;;;10.03;100.00;98621.97;10311262;28;20213;-72
2023/01/15 02:13:50;;;;;;;1.70;0.55;;;;;;;10.05;100.00;98625.28;10310499;28;20136;-73
2023/01/15 02:18:59;;;;;;;0.52;0.20;;;;;;;10.05;100.00;98620.78;10316091;28;20566;-72
2023/01/15 02:24:06;;;;;;;0.88;0.20;;;;;;;10.06;100.00;98619.81;10311537;28;20058;-71
2023/01/15 02:29:14;;;;;;;1.63;0.20;;;;;;;10.09;100.00;98627.44;10317433;28;20049;-72
2023/01/15 02:34:24;;;;;;;1.00;0.20;;;;;;;10.11;100.00;98637.94;10320246;28;20045;-71
2023/01/15 02:39:29;;;;;;;0.68;0.22;;;;;;;10.10;100.00;98654.88;10311040;28;20522;-71
2023/01/15 02:44:37;;;;;;;0.47;0.03;;;;;;;9.82;100.00;98652.41;10323343;28;20129;-72
2023/01/15 02:49:41;;;;;;;0.10;0.00;;;;;;;9.41;99.16;98659.28;10306577;28;20175;-72
2023/01/15 02:54:48;;;;;;;0.33;0.00;;;;;;;9.53;100.00;98658.91;10319892;28;20057;-72
2023/01/15 02:59:56;;;;;;;0.10;0.00;;;;;;;9.44;96.92;98657.16;10322581;28;20529;-72
2023/01/15 03:05:16;;;;;;;0.25;0.00;;;;;;;9.33;97.07;98673.34;10318540;28;20049;-74
2023/01/15 03:10:21;;;;;;;0.00;0.00;;;;;;;9.16;96.72;98686.50;10316871;28;20052;-72
2023/01/15 03:20:51;;;;;;;0.13;0.00;;;;;;;9.18;96.12;98687.16;10321971;28;20050;-71
2023/01/15 03:25:52;;;;;;;0.22;0.10;;;;;;;9.08;97.41;98681.09;10328684;28;20060;-70
2023/01/15 03:30:54;;;;;;;0.70;0.08;;;;;;;9.20;97.93;98687.84;10326997;28;20073;-71
2023/01/15 03:36:01;;;;;;;0.20;0.10;;;;;;;9.23;97.40;98680.56;10324145;28;20051;-73
2023/01/15 03:41:21;;;;;;;0.20;0.00;;;;;;;9.33;97.33;98698.06;10330743;28;20630;-71
2023/01/15 03:46:29;;;;;;;0.05;0.00;;;;;;;9.35;97.14;98725.31;10327982;28;20041;-72
2023/01/15 03:51:46;;;;;;;0.22;0.00;;;;;;;9.16;94.45;98731.63;10319765;28;20050;-73
2023/01/15 03:56:57;;;;;;;0.10;0.05;;;;;;;9.17;93.70;98720.03;10317236;28;20133;-73
2023/01/15 04:02:02;;;;;;;0.32;0.00;;;;;;;8.99;92.20;98740.41;10324755;28;20050;-73
2023/01/15 04:07:04;;;;;;;1.38;0.00;;;;;;;8.94;91.00;98735.53;10308249;28;20042;-73
2023/01/15 04:12:06;;;;;;;0.20;0.08;;;;;;;8.89;89.99;98747.59;10316590;28;20135;-72
2023/01/15 04:17:07;;;;;;;1.23;0.00;;;;;;;8.93;91.02;98751.63;10321809;28;20183;-73
2023/01/15 04:22:10;;;;;;;0.10;0.00;;;;;;;8.80;87.92;98744.84;10321492;28;20398;-74
2023/01/15 04:27:12;;;;;;;2.42;0.10;;;;;;;8.75;86.19;98760.41;10313437;28;20136;-74
2023/01/15 04:32:13;;;;;;;0.38;0.00;;;;;;;8.43;87.52;98774.88;10319427;28;20453;-72
2023/01/15 04:37:16;;;;;;;0.13;0.00;;;;;;;8.13;89.66;98790.03;10320125;28;20078;-74
2023/01/15 04:47:37;;;;;;;0.10;0.00;;;;;;;7.76;88.19;98806.72;10311778;28;20054;-74
2023/01/15 04:52:39;;;;;;;0.25;0.00;;;;;;;7.46;88.96;98791.84;10315332;28;20049;-73
2023/01/15 04:57:40;;;;;;;0.28;0.05;;;;;;;7.42;89.37;98799.19;10308859;28;20054;-74
2023/01/15 05:02:42;;;;;;;0.55;0.35;;;;;;;7.65;93.13;98820.09;10318373;28;20049;-74
2023/01/15 05:07:43;;;;;;;0.30;0.10;;;;;;;7.76;86.97;98805.88;10317679;28;20058;-70
2023/01/15 05:12:45;;;;;;;0.70;0.00;;;;;;;7.51;88.22;98796.72;10318524;28;20381;-74
2023/01/15 05:17:46;;;;;;;1.10;0.10;;;;;;;7.60;85.85;98786.09;10320428;28;20515;-73
2023/01/15 05:22:48;;;;;;;1.02;0.20;;;;;;;7.70;84.88;98807.28;10321350;28;20120;-73
2023/01/15 05:27:49;;;;;;;0.30;0.00;;;;;;;7.75;87.03;98799.75;10318050;28;20137;-72
2023/01/15 05:32:50;;;;;;;0.20;0.00;;;;;;;7.78;85.89;98825.97;10318974;28;20566;-72
2023/01/15 05:37:52;;;;;;;0.03;0.00;;;;;;;7.71;86.96;98826.66;10324017;28;20765;-73
2023/01/15 05:42:53;;;;;;;0.10;0.00;;;;;;;7.81;86.99;98847.84;10318411;28;20234;-73
2023/01/15 05:47:55;;;;;;;0.05;0.00;;;;;;;7.74;86.99;98845.75;10324230;28;20100;-72
2023/01/15 05:52:56;;;;;;;0.20;0.00;;;;;;;7.73;84.55;98844.09;10326233;28;20053;-73
2023/01/15 05:57:58;;;;;;;2.17;0.05;;;;;;;7.40;87.53;98856.75;10329462;28;20719;-74
2023/01/15 06:02:59;;;;;;;0.15;0.00;;;;;;;7.42;86.51;98852.16;10324860;28;20138;-73
2023/01/15 06:08:01;;;;;;;0.68;0.10;;;;;;;7.14;86.75;98864.34;10303240;28;20057;-73
2023/01/15 06:13:02;;;;;;;0.75;0.10;;;;;;;7.02;86.17;98858.34;10317112;28;20050;-73
2023/01/15 06:18:04;;;;;;;0.68;0.00;;;;;;;7.10;87.93;98854.19;10323800;28;20201;-73
2023/01/15 06:23:06;;;;;;;0.65;0.10;;;;;;;6.97;88.94;98852.63;10322374;28;20051;-72
2023/01/15 06:28:08;;;;;;;0.30;0.13;;;;;;;6.89;86.06;98844.50;10325452;28;20070;-76
2023/01/15 06:33:10;;;;;;;0.40;0.00;;;;;;;6.94;85.38;98852.91;10333423;28;20050;-73
2023/01/15 06:38:11;;;;;;;0.55;0.00;;;;;;;7.17;87.22;98850.03;10345183;28;20045;-74
2023/01/15 06:48:33;;;;;;;0.65;0.00;;;;;;;7.00;84.79;98885.91;10324412;28;20140;-73
2023/01/15 06:53:35;;;;;;;0.25;0.10;;;;;;;6.99;87.61;98893.00;10320677;28;20060;-72
2023/01/15 06:58:37;;;;;;;0.25;0.05;;;;;;;7.04;84.44;98903.19;10319706;28;20688;-73
2023/01/15 07:03:38;;;;;;;0.30;0.00;;;;;;;7.03;86.01;98894.41;10321778;28;20514;-73
2023/01/15 07:08:40;;;;;;;0.10;0.00;;;;;;;6.91;84.07;98911.38;10325915;28;20058;-74
2023/01/15 07:13:41;;;;;;;0.65;0.00;;;;;;;6.88;85.89;98893.13;10324070;28;20057;-75
2023/01/15 07:18:43;;;;;;;0.22;0.03;;;;;;;6.82;87.97;98891.00;10325807;28;20140;-74
2023/01/15 07:23:44;;;;;;;0.85;0.20;;;;;;;7.03;87.29;98907.66;10316298;28;20089;-71
2023/01/15 07:28:46;;;;;;;1.27;0.10;;;;;;;7.15;88.28;98923.44;10287916;28;20160;-74
2023/01/15 07:33:47;;;;;;;0.17;0.00;;;;;;;7.14;88.87;98929.69;10319791;28;20049;-73
2023/01/15 07:38:49;;;;;;;1.48;0.20;;;;;;;6.96;87.97;98932.94;10313287;28;20057;-75
2023/01/15 07:54:32;;;;;;;0.80;0.20;;;;;;;6.80;88.84;98945.81;10312687;28;20050;-74
2023/01/15 07:59:33;;;;;;;0.93;0.20;;;;;;;6.79;89.08;98965.31;10317707;28;20045;-73
2023/01/15 08:04:35;;;;;;;0.13;0.10;;;;;;;6.83;89.74;98966.72;10311940;28;20426;-72
2023/01/15 08:09:36;;;;;;;0.32;0.20;;;;;;;6.72;89.88;98981.72;10314987;28;20054;-70
2023/01/15 08:20:02;;;;;;;1.15;0.00;;;;;;;6.65;91.95;98975.28;10311309;28;20942;-71
2023/01/15 08:25:04;;;;;;;1.13;0.00;;;;;;;6.40;90.15;98980.94;10323225;28;20823;-70
2023/01/15 08:30:08;;;;;;;0.40;0.10;;;;;;;6.47;91.76;98976.78;10319596;28;20129;-72
2023/01/15 08:35:11;;;;;;;0.43;0.10;;;;;;;6.31;91.64;98988.66;10317810;28;20591;-71
2023/01/15 08:40:13;;;;;;;1.20;0.10;;;;;;;6.30;91.64;98986.97;10321377;28;20058;-72
2023/01/15 08:45:15;;;;;;;0.13;0.00;;;;;;;6.14;92.35;98998.00;10307954;28;20104;-73
2023/01/15 08:50:16;;;;;;;0.10;0.00;;;;;;;6.24;90.75;99013.91;10315461;28;20746;-75
2023/01/15 08:55:17;;;;;;;0.25;0.00;;;;;;;6.21;90.70;99019.44;10318460;28;20061;-70
2023/01/15 09:00:20;;;;;;;0.63;0.00;;;;;;;6.19;91.70;99018.75;10317093;28;20061;-71
2023/01/15 09:05:22;;;;;;;0.35;0.10;;;;;;;6.11;89.99;99018.53;10316987;28;20068;-70
2023/01/15 09:10:23;;;;;;;0.20;0.10;;;;;;;6.18;91.70;99024.97;10314905;28;20061;-71
2023/01/15 09:15:25;;;;;;;0.68;0.00;;;;;;;6.36;91.38;99038.50;10317987;28;20088;-71
2023/01/15 09:20:26;;;;;;;0.28;0.00;;;;;;;6.28;91.00;99041.78;10313526;28;20042;-72
2023/01/15 09:25:28;;;;;;;0.38;0.08;;;;;;;6.30;90.88;99045.13;10311584;28;20724;-72
2023/01/15 09:30:30;;;;;;;3.40;0.35;;;;;;;6.37;91.36;99063.97;10310256;28;20041;-70
2023/01/15 09:35:31;;;;;;;0.70;0.20;;;;;;;6.23;91.86;99069.53;10305022;28;20734;-67
2023/01/15 09:40:55;;;;;;;0.80;0.10;;;;;;;6.32;90.74;99064.34;10312300;28;20061;-66
2023/01/15 09:46:12;;;;;;;1.45;0.20;;;;;;;6.35;91.19;99079.97;10307355;28;20054;-66
2023/01/15 09:51:32;;;;;;;0.70;0.10;;;;;;;6.31;91.51;99085.63;10310247;28;20075;-70
2023/01/15 09:56:36;;;;;;;0.80;0.10;;;;;;;6.30;91.56;99097.97;10307799;28;20799;-67
2023/01/15 10:01:39;;;;;;;0.32;0.20;;;;;;;6.22;91.20;99086.38;10306683;28;20050;-69
2023/01/15 10:06:48;;;;;;;2.60;2.40;;;;;;;6.13;91.71;99080.03;10299104;28;20548;-69
2023/01/15 10:12:34;;;;;;;1.05;0.50;;;;;;;6.18;90.15;99088.41;10305451;28;20054;-66
2023/01/15 10:17:43;;;;;;;0.80;0.32;;;;;;;6.25;87.97;99086.94;10306123;28;20106;-69
2023/01/15 10:23:24;;;;;;;1.10;0.68;;;;;;;6.21;89.51;99088.16;10308260;28;20371;-67
2023/01/15 10:28:29;;;;;;;0.30;0.28;;;;;;;6.24;86.88;99087.91;10304489;28;20054;-71
2023/01/15 10:33:58;;;;;;;0.40;0.22;;;;;;;6.15;86.45;99093.94;10307663;28;20132;-64
2023/01/15 10:39:34;;;;;;;1.05;0.40;;;;;;;6.21;84.95;99082.88;10304908;28;20830;-66
2023/01/15 10:45:01;;;;;;;0.73;0.10;;;;;;;6.36;86.02;99097.50;10301224;28;20057;-68
2023/01/15 10:50:15;;;;;;;0.63;0.10;;;;;;;6.27;83.00;99092.94;10307331;28;20153;-64
2023/01/15 10:55:23;;;;;;;2.13;0.40;;;;;;;6.30;83.08;99097.97;10287703;28;20045;-68
2023/01/15 11:00:25;;;;;;;0.98;0.17;;;;;;;6.27;82.74;99087.66;10297647;28;20057;-68
2023/01/15 11:05:27;;;;;;;0.60;0.22;;;;;;;6.30;81.28;99087.41;10301544;28;20057;-67
2023/01/15 11:10:28;;;;;;;0.63;0.20;;;;;;;6.40;81.97;99102.53;10306222;28;20698;-67
2023/01/15 11:20:50;;;;;;;0.28;0.10;;;;;;;6.45;80.90;99100.34;10308206;28;20060;-67
2023/01/15 11:25:55;;;;;;;1.02;0.20;;;;;;;6.41;81.08;99102.41;10312219;28;20629;-70
2023/01/15 11:30:58;;;;;;;1.05;0.30;;;;;;;6.70;80.34;99118.50;10309654;28;20058;-67
2023/01/15 11:36:03;;;;;;;1.85;0.30;;;;;;;6.70;77.89;99121.16;10314599;28;20057;-70
2023/01/15 11:41:05;;;;;;;1.20;0.15;;;;;;;6.69;77.58;99130.03;10307596;28;20495;-73
2023/01/15 11:51:48;;;;;;;1.33;0.20;;;;;;;7.95;70.80;99136.25;10309467;28;20055;-73
2023/01/15 11:56:50;;;;;;;1.92;0.32;;;;;;;8.03;70.37;99143.53;10309547;28;20052;-63
2023/01/15 12:02:03;;;;;;;0.98;0.20;;;;;;;9.08;65.19;99142.97;10312838;28;20531;-69
2023/01/15 12:07:11;;;;;;;2.08;0.20;;;;;;;8.54;66.35;99133.75;10301747;28;20057;-68
2023/01/15 12:12:35;;;;;;;1.40;0.28;;;;;;;10.40;60.31;99128.84;10313147;28;20097;-65
2023/01/15 12:17:55;;;;;;;1.40;0.30;;;;;;;15.47;46.96;99102.69;10310320;28;20058;-69
2023/01/15 12:23:30;;;;;;;1.33;0.60;;;;;;;17.94;41.38;99109.81;10315894;28;22308;-69
2023/01/15 12:28:51;;;;;;;1.02;0.30;;;;;;;18.81;36.31;99095.78;10317384;28;20121;-72
2023/01/15 12:34:01;;;;;;;1.95;0.47;;;;;;;15.38;43.22;99093.09;10314342;28;20211;-70
2023/01/15 12:39:13;;;;;;;1.20;0.28;;;;;;;14.78;43.75;99076.84;10309424;28;20057;-69
2023/01/15 12:49:48;;;;;;;0.50;0.28;;;;;;;10.15;56.70;99090.47;10310231;28;20053;-64
2023/01/15 12:55:00;;;;;;;3.40;0.40;;;;;;;9.14;61.42;99099.09;10308995;28;20054;-69
2023/01/15 13:00:13;;;;;;;2.22;0.40;;;;;;;9.26;59.70;99092.66;10307065;28;20064;-68
2023/01/15 13:05:25;;;;;;;3.42;1.23;;;;;;;9.32;60.28;99107.16;10306560;28;20045;-69
2023/01/15 13:10:35;;;;;;;2.05;1.42;;;;;;;8.83;61.77;99102.78;10313436;28;20121;-68
2023/01/15 13:15:41;;;;;;;3.03;1.42;;;;;;;8.41;62.96;99099.53;10309691;28;20051;-67
2023/01/15 13:20:48;;;;;;;1.33;0.43;;;;;;;8.18;64.15;99106.88;10306547;28;20433;-68
2023/01/15 13:26:25;;;;;;;3.40;0.52;;;;;;;7.91;64.03;99095.09;10298254;28;20056;-70
2023/01/15 13:31:44;;;;;;;2.75;0.60;;;;;;;7.73;64.06;99109.00;10305031;28;20706;-69
2023/01/15 13:36:48;;;;;;;2.92;0.82;;;;;;;7.68;64.17;99111.19;10305157;28;20045;-68
2023/01/15 13:47:19;;;;;;;3.85;0.57;;;;;;;7.78;61.76;99116.53;10313715;28;20096;-68
2023/01/15 13:52:36;;;;;;;2.75;0.30;;;;;;;7.65;63.29;99129.16;10304946;28;20187;-69
2023/01/15 13:57:40;;;;;;;2.45;0.77;;;;;;;7.78;64.82;99127.97;10305256;28;20054;-66
2023/01/15 14:02:51;;;;;;;3.58;0.50;;;;;;;7.69;64.59;99131.41;10311785;28;20184;-65
2023/01/15 14:07:54;;;;;;;2.80;0.70;;;;;;;7.89;62.70;99139.44;10305462;28;20144;-68
2023/01/15 14:13:08;;;;;;;1.92;0.40;;;;;;;7.94;62.01;99134.56;10306006;28;20141;-67
2023/01/15 14:18:18;;;;;;;3.45;0.57;;;;;;;7.94;62.35;99124.81;10306999;28;20043;-68
2023/01/15 14:23:51;;;;;;;3.80;0.50;;;;;;;7.78;64.43;99149.16;10305373;28;20088;-64
2023/01/15 14:29:29;;;;;;;7.85;4.40;;;;;;;7.78;66.19;99149.16;10309854;28;20145;-63
2023/01/15 14:34:33;;;;;;;3.28;0.57;;;;;;;7.67;67.13;99162.50;10304340;28;20069;-62
2023/01/15 14:39:45;;;;;;;12.50;9.87;;;;;;;7.53;66.30;99170.78;10307382;28;20060;-60
2023/01/15 14:45:14;;;;;;;3.30;1.13;;;;;;;7.51;64.34;99156.84;10304590;28;20425;-63
2023/01/15 14:50:40;;;;;;;2.47;0.90;;;;;;;7.55;65.59;99184.72;10313681;28;20075;-70
2023/01/15 14:55:49;;;;;;;5.40;1.05;;;;;;;7.56;65.20;99191.69;10316901;28;20073;-67
2023/01/15 15:00:52;;;;;;;2.15;0.80;;;;;;;7.56;64.73;99189.88;10319941;28;20085;-70
2023/01/15 15:05:56;;;;;;;4.03;0.88;;;;;;;7.67;65.36;99188.13;10321143;28;20156;-68
2023/01/15 15:10:59;;;;;;;9.32;4.88;;;;;;;7.60;63.64;99209.00;10315272;28;20137;-72
2023/01/15 15:16:11;;;;;;;7.03;0.98;;;;;;;7.41;62.92;99209.72;10321838;28;20076;-73
2023/01/15 15:21:21;;;;;;;3.22;0.60;;;;;;;7.40;63.43;99213.31;10326420;28;20165;-74
2023/01/15 15:26:34;;;;;;;5.03;1.52;;;;;;;7.36;63.67;99220.69;10318599;28;20839;-70
2023/01/15 15:31:43;;;;;;;2.13;0.73;;;;;;;7.33;63.17;99226.25;10321399;28;20160;-71
2023/01/15 15:36:45;;;;;;;2.72;0.77;;;;;;;7.28;63.63;99228.44;10314519;28;20429;-69
2023/01/15 15:52:43;;;;;;;4.82;1.45;;;;;;;7.36;63.41;99227.81;10319471;28;20061;-69
2023/01/15 15:57:50;;;;;;;2.90;1.05;;;;;;;7.30;63.93;99218.56;10314898;28;20790;-68
2023/01/15 16:02:51;;;;;;;3.92;2.92;;;;;;;7.25;64.17;99231.31;10306459;28;20120;-68
2023/01/15 16:07:54;;;;;;;1.77;0.55;;;;;;;7.11;63.44;99234.28;10309265;28;20058;-69
2023/01/15 16:12:59;;;;;;;2.50;0.80;;;;;;;7.02;64.12;99223.47;10311693;28;20164;-69
2023/01/15 16:18:01;;;;;;;;;;;;;;;7.07;64.74;99233.69;10314459;28;20098;-63
2023/01/15 16:23:04;;;;;;;1.75;0.50;;;;;;;6.99;64.39;99207.03;10318135;28;19976;-69
2023/01/15 16:28:20;;;;;;;2.72;1.20;;;;;;;6.98;65.40;99227.38;10301622;28;20066;-69
2023/01/15 16:33:22;;;;;;;1.88;0.70;;;;;;;7.03;66.50;99227.81;10311882;28;20049;-72
2023/01/15 16:38:24;;;;;;;4.68;1.85;;;;;;;7.01;67.32;99229.75;10310494;28;21036;-71
2023/01/15 16:43:28;;;;;;;2.80;1.00;;;;;;;6.94;67.76;99217.16;10314380;28;20716;-69
2023/01/15 16:48:37;;;;;;;3.38;1.10;;;;;;;6.83;68.07;99225.94;10313514;28;20527;-71
2023/01/15 16:53:39;;;;;;;1.35;0.43;;;;;;;6.80;68.41;99221.75;10315270;28;20050;-70
2023/01/15 16:58:41;;;;;;;2.88;0.82;;;;;;;6.76;69.22;99216.84;10310635;28;20061;-70
2023/01/15 17:03:42;;;;;;;3.92;0.70;;;;;;;6.63;69.20;99219.63;10310464;28;20060;-71
2023/01/15 17:08:47;;;;;;;1.45;0.50;;;;;;;6.62;69.04;99223.22;10316730;28;20053;-70
2023/01/15 17:13:49;;;;;;;;;;;;;;;6.66;69.26;99237.91;10311410;28;20053;-70
2023/01/15 17:18:51;;;;;;;3.38;1.10;;;;;;;6.58;69.93;99240.34;10315685;28;20406;-70
2023/01/15 17:23:53;;;;;;;2.38;0.38;;;;;;;6.51;70.88;99232.84;10314014;28;20046;-70
2023/01/15 17:28:55;;;;;;;1.73;0.35;;;;;;;6.41;71.56;99237.22;10309646;28;20060;-64
2023/01/15 17:33:59;;;;;;;3.95;0.70;;;;;;;6.43;70.90;99223.88;10309984;28;20070;-70
2023/01/15 17:39:00;;;;;;;2.42;0.63;;;;;;;6.40;71.59;99216.19;10305606;28;20057;-70
2023/01/15 17:44:02;;;;;;;1.33;0.60;;;;;;;6.43;71.64;99213.31;10304531;28;20143;-67
2023/01/15 17:49:04;;;;;;;2.05;0.73;;;;;;;6.24;71.95;99208.63;10305371;28;20772;-69
2023/01/15 17:54:05;;;;;;;2.15;0.68;;;;;;;6.28;73.13;99207.44;10301859;28;20052;-58
2023/01/15 18:10:00;;;;;;;2.45;0.95;;;;;;;6.24;74.22;99201.53;10305899;28;20120;-58
2023/01/15 18:15:02;;;;;;;1.75;0.95;;;;;;;6.18;74.33;99189.69;10312970;28;20148;-62
2023/01/15 18:20:04;;;;;;;5.65;0.90;;;;;;;6.15;74.15;99178.50;10307570;28;20054;-69
2023/01/15 18:25:09;;;;;;;2.97;0.82;;;;;;;6.12;74.25;99168.16;10311386;28;20256;-71
2023/01/15 18:30:12;;;;;;;3.58;1.00;;;;;;;6.12;74.49;99173.44;10325176;28;20113;-71
2023/01/15 18:35:16;;;;;;;2.10;0.77;;;;;;;6.02;74.45;99160.16;10324787;28;20421;-70
2023/01/15 18:40:18;;;;;;;1.70;0.73;;;;;;;6.04;74.89;99175.88;10335599;28;20422;-72
2023/01/15 18:50:39;;;;;;;4.90;1.33;;;;;;;6.11;75.30;99150.63;10327050;28;20720;-71
2023/01/15 18:55:42;;;;;;;3.22;1.23;;;;;;;6.03;75.29;99131.91;10317593;28;20056;-68
2023/01/15 19:00:44;;;;;;;2.60;0.95;;;;;;;6.11;75.55;99140.06;10318725;28;20070;-67
2023/01/15 19:05:45;;;;;;;4.10;1.00;;;;;;;6.13;75.77;99132.88;10315322;28;20770;-70
2023/01/15 19:10:47;;;;;;;2.50;1.30;;;;;;;6.11;75.71;99119.78;10319547;28;20195;-70
2023/01/15 19:21:10;;;;;;;3.60;1.45;;;;;;;6.17;74.75;99113.13;10321582;28;20652;-69
2023/01/15 19:26:13;;;;;;;4.35;1.10;;;;;;;6.19;73.84;99096.22;10318251;28;20050;-72
2023/01/15 19:36:37;;;;;;;5.05;1.38;;;;;;;6.19;73.43;99098.03;10317356;28;20049;-69
2023/01/15 19:52:34;;;;;;;3.90;1.10;;;;;;;6.25;71.85;99078.19;10312622;28;20049;-70
2023/01/15 19:57:37;;;;;;;4.65;1.42;;;;;;;6.24;71.50;99076.50;10314036;28;20112;-70
2023/01/15 20:02:38;;;;;;;6.03;1.20;;;;;;;6.29;71.22;99061.97;10307556;28;20629;-70
2023/01/15 20:07:41;;;;;;;3.83;1.13;;;;;;;6.35;71.65;99057.94;10312564;28;20123;-70
2023/01/15 20:18:03;;;;;;;5.40;1.08;;;;;;;6.28;72.12;99046.22;10309647;28;20700;-68
2023/01/15 20:23:05;;;;;;;2.78;1.02;;;;;;;6.32;72.60;99037.91;10314256;28;20560;-70
2023/01/15 20:28:07;;;;;;;3.92;1.27;;;;;;;6.43;72.92;99034.38;10314648;28;20063;-71
2023/01/15 20:33:08;;;;;;;3.65;1.10;;;;;;;6.34;73.37;99022.75;10315717;28;20068;-71
2023/01/15 20:38:10;;;;;;;4.20;0.98;;;;;;;6.26;74.58;99012.00;10318158;28;20050;-69
2023/01/15 20:53:52;;;;;;;4.88;1.23;;;;;;;6.20;76.13;99015.16;10312575;28;20151;-69
2023/01/15 20:58:55;;;;;;;1.98;0.82;;;;;;;6.18;77.38;99014.41;10309893;28;20049;-69
2023/01/15 21:03:57;;;;;;;2.50;0.80;;;;;;;6.09;79.10;99008.06;10308787;28;20065;-70
2023/01/15 21:08:58;;;;;;;3.00;0.73;;;;;;;6.09;81.07;99004.59;10312114;28;20057;-70
2023/01/15 21:14:00;;;;;;;2.83;0.88;;;;;;;6.11;81.15;98982.38;10310731;28;20053;-70
2023/01/15 21:19:03;;;;;;;4.68;0.98;;;;;;;6.22;81.70;98989.44;10306005;28;20064;-69
2023/01/15 21:24:05;;;;;;;3.85;1.50;;;;;;;6.06;81.94;98976.63;10314041;28;20891;-64
2023/01/15 21:29:06;;;;;;;2.92;1.00;;;;;;;6.13;80.62;98974.34;10311299;28;20060;-70
2023/01/15 21:34:09;;;;;;;3.22;1.05;;;;;;;6.03;80.45;98978.69;10306856;28;20721;-69
2023/01/15 21:39:12;;;;;;;5.57;1.20;;;;;;;6.04;81.08;98969.81;10305167;28;20125;-71
2023/01/15 21:44:34;;;;;;;4.20;1.08;;;;;;;6.04;80.54;98970.63;10308358;28;20054;-73
2023/01/15 21:49:36;;;;;;;3.75;1.13;;;;;;;5.88;79.31;98957.81;10302916;28;20151;-62
2023/01/15 21:54:39;;;;;;;3.40;1.10;;;;;;;5.87;79.97;98950.00;10308384;28;20056;-71
2023/01/15 21:59:41;;;;;;;3.58;1.30;;;;;;;5.89;80.20;98927.81;10313253;28;20061;-69
2023/01/15 22:04:42;;;;;;;4.85;1.25;;;;;;;6.00;80.03;98927.81;10314200;28;20070;-69
2023/01/15 22:09:44;;;;;;;2.47;1.10;;;;;;;5.96;79.66;98926.34;10308703;28;20049;-71
2023/01/15 22:14:46;;;;;;;3.50;1.02;;;;;;;5.99;79.49;98925.25;10314985;28;20719;-69
2023/01/15 22:19:50;;;;;;;3.33;0.88;;;;;;;5.90;78.93;98921.56;10316214;28;20167;-70
2023/01/15 22:24:51;;;;;;;1.83;1.15;;;;;;;5.83;79.41;98909.81;10309597;28;20057;-71
2023/01/15 22:29:53;;;;;;;3.03;1.45;;;;;;;5.86;79.50;98904.28;10301370;28;20073;-70
2023/01/15 22:34:54;;;;;;;3.42;1.00;;;;;;;5.81;79.36;98896.75;10308688;28;20057;-69
2023/01/15 22:39:55;;;;;;;3.42;1.08;;;;;;;5.81;80.03;98880.91;10302276;28;20472;-69
2023/01/15 22:44:59;;;;;;;4.97;1.15;;;;;;;5.74;80.48;98874.44;10314671;28;20077;-71
2023/01/15 22:50:01;;;;;;;3.40;1.38;;;;;;;5.79;81.46;98874.06;10307514;28;20093;-70
2023/01/15 22:55:02;;;;;;;3.08;0.93;;;;;;;5.83;81.14;98870.22;10306179;28;20137;-70
2023/01/15 23:00:05;;;;;;;1.92;0.73;;;;;;;5.84;80.97;98870.09;10308485;28;20053;-69
2023/01/15 23:05:07;;;;;;;2.40;1.05;;;;;;;5.77;81.28;98846.94;10309305;28;20042;-71
2023/01/15 23:10:10;;;;;;;3.60;0.75;;;;;;;5.65;81.81;98839.06;10309067;28;20058;-70
2023/01/15 23:15:12;;;;;;;3.33;1.00;;;;;;;5.62;81.98;98817.38;10322278;28;20572;-70
2023/01/15 23:20:14;;;;;;;2.35;0.63;;;;;;;5.66;81.73;98803.78;10322145;28;20062;-69
2023/01/15 23:25:15;;;;;;;3.03;1.25;;;;;;;5.70;81.09;98808.81;10319887;28;20099;-70
2023/01/15 23:30:17;;;;;;;3.20;0.90;;;;;;;5.69;80.64;98796.56;10328522;28;20041;-70
2023/01/15 23:35:19;;;;;;;2.85;0.90;;;;;;;5.62;80.99;98783.06;10321369;28;20054;-69
2023/01/15 23:40:20;;;;;;;3.22;1.55;;;;;;;5.58;80.46;98795.66;10323713;28;20048;-69
2023/01/15 23:50:42;;;;;;;1.15;0.40;;;;;;;5.52;82.20;98780.34;10324919;28;20608;-70
2023/01/15 23:55:44;;;;;;;2.15;0.30;;;;;;;5.42;84.00;98774.13;10322983;28;20674;-71
